createdAt,value
2022-10-09T00:00:40.732Z,1.80
2022-10-09T00:01:42.191Z,1.70
2022-10-09T00:02:43.744Z,1.77
2022-10-09T00:03:47.923Z,1.87
2022-10-09T00:04:49.839Z,2.00
2022-10-09T00:05:51.235Z,1.93
2022-10-09T00:06:52.617Z,2.07
2022-10-09T00:07:54.368Z,1.97
2022-10-09T00:08:56.713Z,1.60
2022-10-09T00:09:58.176Z,1.93
2022-10-09T00:10:59.634Z,1.83
2022-10-09T00:12:01.169Z,1.80
2022-10-09T00:13:02.517Z,2.00
2022-10-09T00:14:05.012Z,2.17
2022-10-09T00:15:06.899Z,2.10
2022-10-09T00:16:11.122Z,2.30
2022-10-09T00:17:12.784Z,1.93
2022-10-09T00:18:16.512Z,2.10
2022-10-09T00:19:18.046Z,1.90
2022-10-09T00:20:19.578Z,1.83
2022-10-09T00:21:25.615Z,2.03
2022-10-09T00:22:27.049Z,2.00
2022-10-09T00:23:28.657Z,2.10
2022-10-09T00:24:30.370Z,2.20
2022-10-09T00:25:32.360Z,1.70
2022-10-09T00:26:34.207Z,2.20
2022-10-09T00:27:36.262Z,2.10
2022-10-09T00:28:38.847Z,1.87
2022-10-09T00:29:40.796Z,1.90
2022-10-09T00:30:42.620Z,1.80
2022-10-09T00:31:44.376Z,1.93
2022-10-09T00:32:46.177Z,2.10
2022-10-09T00:33:48.858Z,1.70
2022-10-09T00:34:51.379Z,2.00
2022-10-09T00:35:53.245Z,2.17
2022-10-09T00:36:54.754Z,1.80
2022-10-09T00:37:56.830Z,1.80
2022-10-09T00:38:58.434Z,1.90
2022-10-09T00:40:00.005Z,2.00
2022-10-09T00:41:01.920Z,1.90
2022-10-09T00:42:04.570Z,1.73
2022-10-09T00:43:37.766Z,1.80
2022-10-09T00:44:52.965Z,1.80
2022-10-09T00:45:56.627Z,2.00
2022-10-09T00:46:58.279Z,1.70
2022-10-09T00:48:06.921Z,1.90
2022-10-09T00:49:17.542Z,1.90
2022-10-09T00:50:24.079Z,2.07
2022-10-09T00:51:26.581Z,1.90
2022-10-09T00:52:28.401Z,1.70
2022-10-09T00:53:30.707Z,1.80
2022-10-09T00:54:34.996Z,2.00
2022-10-09T00:55:37.682Z,2.00
2022-10-09T00:56:39.182Z,2.00
2022-10-09T00:57:41.801Z,1.70
2022-10-09T00:58:43.329Z,2.00
2022-10-09T00:59:45.232Z,1.70
2022-10-09T01:00:46.668Z,1.90
2022-10-09T01:01:48.241Z,2.07
2022-10-09T01:02:50.002Z,1.60
2022-10-09T01:03:51.686Z,2.00
2022-10-09T01:04:53.750Z,1.90
2022-10-09T01:06:15.551Z,1.80
2022-10-09T01:07:32.794Z,2.07
2022-10-09T01:08:53.056Z,1.73
2022-10-09T01:10:03.396Z,1.80
2022-10-09T01:11:31.268Z,1.60
2022-10-09T01:12:41.443Z,1.90
2022-10-09T01:14:03.706Z,1.80
2022-10-09T01:15:09.007Z,1.80
2022-10-09T01:16:16.651Z,1.80
2022-10-09T01:17:26.235Z,1.50
2022-10-09T01:19:02.703Z,1.70
2022-10-09T01:20:26.941Z,1.83
2022-10-09T01:21:40.978Z,1.67
2022-10-09T01:23:02.002Z,1.80
2022-10-09T01:24:15.343Z,1.77
2022-10-09T01:25:32.267Z,1.70
2022-10-09T01:26:54.859Z,1.83
2022-10-09T01:27:57.433Z,1.90
2022-10-09T01:29:04.703Z,1.83
2022-10-09T01:30:10.577Z,1.90
2022-10-09T01:31:13.300Z,1.73
2022-10-09T01:32:21.446Z,2.00
2022-10-09T01:33:23.621Z,1.67
2022-10-09T01:34:26.336Z,1.83
2022-10-09T01:35:29.334Z,1.57
2022-10-09T01:36:31.546Z,2.10
2022-10-09T01:37:35.022Z,1.67
2022-10-09T01:38:39.073Z,1.60
2022-10-09T01:39:43.589Z,1.73
2022-10-09T01:40:45.191Z,1.70
2022-10-09T01:41:50.251Z,1.70
2022-10-09T01:42:52.420Z,1.87
2022-10-09T01:43:53.921Z,2.03
2022-10-09T01:44:55.492Z,1.73
2022-10-09T01:46:20.783Z,2.00
2022-10-09T01:47:22.605Z,1.83
2022-10-09T01:48:25.164Z,1.80
2022-10-09T01:49:43.260Z,1.70
2022-10-09T01:50:48.158Z,1.70
2022-10-09T01:51:59.789Z,1.77
2022-10-09T01:53:06.123Z,1.97
2022-10-09T01:54:11.973Z,1.70
2022-10-09T01:55:38.609Z,1.73
2022-10-09T01:56:41.018Z,1.73
2022-10-09T01:58:03.345Z,1.63
2022-10-09T01:59:15.870Z,1.80
2022-10-09T02:00:18.361Z,1.60
2022-10-09T02:01:35.427Z,1.60
2022-10-09T02:02:38.490Z,1.70
2022-10-09T02:03:42.627Z,1.70
2022-10-09T02:04:44.784Z,1.63
2022-10-09T02:05:50.036Z,1.57
2022-10-09T02:06:52.093Z,1.87
2022-10-09T02:07:55.155Z,1.60
2022-10-09T02:08:57.793Z,2.07
2022-10-09T02:10:02.438Z,1.60
2022-10-09T02:11:04.523Z,2.00
2022-10-09T02:12:09.777Z,2.20
2022-10-09T02:13:11.918Z,2.00
2022-10-09T02:14:13.896Z,1.60
2022-10-09T02:15:16.200Z,1.80
2022-10-09T02:16:21.519Z,1.77
2022-10-09T02:17:28.041Z,1.80
2022-10-09T02:18:48.992Z,1.90
2022-10-09T02:20:17.414Z,1.93
2022-10-09T02:21:26.142Z,1.90
2022-10-09T02:22:31.736Z,1.70
2022-10-09T02:23:35.078Z,1.90
2022-10-09T02:24:39.318Z,1.80
2022-10-09T02:25:41.369Z,2.20
2022-10-09T02:26:43.020Z,1.87
2022-10-09T02:27:46.218Z,2.10
2022-10-09T02:28:47.843Z,1.90
2022-10-09T02:29:49.886Z,1.93
2022-10-09T02:31:05.696Z,1.90
2022-10-09T02:32:07.577Z,1.60
2022-10-09T02:33:08.968Z,1.90
2022-10-09T02:34:12.915Z,2.07
2022-10-09T02:35:14.587Z,1.87
2022-10-09T02:36:16.285Z,1.90
2022-10-09T02:37:18.321Z,1.70
2022-10-09T02:38:19.739Z,1.80
2022-10-09T02:39:21.208Z,1.80
2022-10-09T02:40:23.085Z,1.73
2022-10-09T02:41:26.154Z,1.60
2022-10-09T02:42:27.694Z,1.60
2022-10-09T02:43:29.133Z,1.70
2022-10-09T02:44:30.732Z,1.70
2022-10-09T02:45:32.089Z,1.73
2022-10-09T02:46:34.206Z,1.53
2022-10-09T02:47:35.690Z,1.57
2022-10-09T02:48:37.099Z,1.60
2022-10-09T02:49:38.640Z,1.83
2022-10-09T02:50:40.040Z,1.90
2022-10-09T02:51:41.793Z,1.83
2022-10-09T02:52:43.519Z,1.83
2022-10-09T02:53:45.133Z,1.87
2022-10-09T02:54:46.516Z,1.60
2022-10-09T02:55:48.017Z,1.83
2022-10-09T02:56:49.886Z,1.80
2022-10-09T02:57:51.285Z,1.80
2022-10-09T02:58:52.957Z,1.80
2022-10-09T02:59:54.372Z,1.63
2022-10-09T03:00:55.817Z,1.70
2022-10-09T03:01:57.295Z,1.80
2022-10-09T03:02:58.770Z,1.70
2022-10-09T03:04:00.238Z,1.60
2022-10-09T03:05:01.752Z,1.70
2022-10-09T03:06:11.557Z,1.70
2022-10-09T03:07:13.135Z,1.80
2022-10-09T03:08:14.956Z,1.83
2022-10-09T03:09:16.702Z,1.80
2022-10-09T03:10:19.779Z,1.70
2022-10-09T03:11:23.076Z,1.60
2022-10-09T03:12:24.710Z,1.70
2022-10-09T03:13:26.367Z,1.70
2022-10-09T03:14:28.086Z,1.70
2022-10-09T03:15:29.989Z,1.70
2022-10-09T03:16:31.458Z,1.60
2022-10-09T03:17:32.890Z,1.90
2022-10-09T03:18:34.775Z,1.73
2022-10-09T03:19:36.359Z,1.90
2022-10-09T03:20:38.591Z,2.00
2022-10-09T03:21:40.554Z,1.83
2022-10-09T03:22:42.038Z,2.13
2022-10-09T03:23:44.215Z,1.60
2022-10-09T03:24:45.610Z,1.90
2022-10-09T03:26:02.779Z,2.10
2022-10-09T03:27:04.292Z,1.90
2022-10-09T03:28:05.856Z,2.20
2022-10-09T03:29:07.344Z,1.87
2022-10-09T03:30:09.473Z,1.77
2022-10-09T03:31:18.938Z,1.70
2022-10-09T03:32:33.406Z,1.70
2022-10-09T03:33:35.681Z,1.70
2022-10-09T03:34:37.595Z,1.87
2022-10-09T03:35:38.990Z,1.97
2022-10-09T03:36:40.401Z,1.90
2022-10-09T03:37:41.861Z,1.70
2022-10-09T03:38:43.221Z,1.50
2022-10-09T03:39:44.674Z,1.60
2022-10-09T03:40:46.079Z,1.90
2022-10-09T03:41:47.598Z,1.70
2022-10-09T03:42:49.347Z,2.10
2022-10-09T03:43:51.349Z,1.70
2022-10-09T03:44:52.792Z,1.77
2022-10-09T03:45:55.365Z,1.90
2022-10-09T03:46:58.809Z,1.77
2022-10-09T03:48:00.271Z,1.97
2022-10-09T03:49:01.659Z,1.90
2022-10-09T03:50:03.122Z,1.50
2022-10-09T03:51:04.710Z,1.60
2022-10-09T03:52:06.063Z,1.83
2022-10-09T03:53:09.755Z,1.90
2022-10-09T03:54:11.141Z,1.60
2022-10-09T03:55:12.840Z,1.90
2022-10-09T03:56:14.612Z,1.77
2022-10-09T03:57:16.001Z,1.57
2022-10-09T03:58:17.464Z,1.83
2022-10-09T03:59:18.850Z,1.67
2022-10-09T04:00:20.412Z,1.80
2022-10-09T04:01:21.890Z,1.63
2022-10-09T04:02:23.420Z,1.83
2022-10-09T04:03:27.136Z,1.70
2022-10-09T04:04:28.674Z,1.87
2022-10-09T04:05:33.280Z,2.00
2022-10-09T04:06:34.891Z,1.90
2022-10-09T04:07:36.388Z,1.60
2022-10-09T04:08:38.376Z,1.70
2022-10-09T04:09:40.048Z,1.60
2022-10-09T04:10:41.485Z,1.70
2022-10-09T04:11:43.130Z,1.73
2022-10-09T04:12:44.608Z,1.63
2022-10-09T04:13:46.092Z,1.93
2022-10-09T04:14:47.519Z,1.80
2022-10-09T04:15:52.957Z,1.70
2022-10-09T04:16:54.409Z,1.80
2022-10-09T04:17:55.845Z,1.80
2022-10-09T04:18:57.207Z,1.60
2022-10-09T04:19:58.881Z,1.67
2022-10-09T04:21:00.298Z,1.83
2022-10-09T04:22:02.132Z,1.70
2022-10-09T04:23:03.488Z,1.60
2022-10-09T04:24:08.272Z,1.87
2022-10-09T04:25:09.819Z,1.63
2022-10-09T04:26:13.343Z,1.70
2022-10-09T04:27:15.089Z,1.80
2022-10-09T04:28:16.482Z,1.83
2022-10-09T04:29:17.930Z,1.80
2022-10-09T04:30:19.332Z,1.80
2022-10-09T04:31:20.819Z,1.77
2022-10-09T04:32:22.335Z,1.93
2022-10-09T04:33:24.612Z,2.10
2022-10-09T04:34:26.033Z,2.00
2022-10-09T04:35:27.519Z,1.80
2022-10-09T04:36:29.115Z,2.23
2022-10-09T04:37:30.620Z,1.60
2022-10-09T04:38:32.561Z,1.87
2022-10-09T04:39:33.906Z,1.70
2022-10-09T04:40:35.451Z,1.70
2022-10-09T04:41:38.546Z,1.87
2022-10-09T04:42:40.371Z,1.77
2022-10-09T04:43:42.111Z,2.10
2022-10-09T04:44:43.576Z,1.83
2022-10-09T04:45:44.974Z,1.80
2022-10-09T04:46:46.443Z,2.13
2022-10-09T04:47:48.087Z,2.10
2022-10-09T04:48:50.551Z,2.00
2022-10-09T04:49:51.941Z,2.03
2022-10-09T04:50:53.412Z,2.30
2022-10-09T04:51:54.765Z,2.10
2022-10-09T04:52:56.115Z,1.70
2022-10-09T04:54:00.634Z,2.10
2022-10-09T04:55:02.414Z,2.03
2022-10-09T04:56:06.938Z,2.10
2022-10-09T04:57:08.694Z,2.13
2022-10-09T04:58:11.823Z,2.00
2022-10-09T04:59:13.201Z,2.03
2022-10-09T05:00:14.867Z,2.23
2022-10-09T05:01:24.879Z,2.00
2022-10-09T05:02:27.087Z,2.40
2022-10-09T05:03:28.505Z,1.80
2022-10-09T05:04:30.040Z,2.20
2022-10-09T05:05:32.862Z,2.00
2022-10-09T05:06:35.353Z,1.87
2022-10-09T05:07:36.874Z,2.30
2022-10-09T05:08:39.551Z,2.00
2022-10-09T05:09:41.224Z,1.97
2022-10-09T05:10:42.952Z,2.10
2022-10-09T05:11:44.323Z,2.00
2022-10-09T05:12:45.947Z,1.63
2022-10-09T05:13:50.097Z,1.87
2022-10-09T05:14:51.516Z,1.97
2022-10-09T05:15:52.899Z,2.10
2022-10-09T05:17:13.063Z,1.80
2022-10-09T05:18:15.710Z,2.03
2022-10-09T05:19:17.162Z,1.90
2022-10-09T05:20:18.627Z,1.83
2022-10-09T05:21:20.850Z,1.70
2022-10-09T05:22:22.547Z,1.87
2022-10-09T05:23:24.017Z,2.20
2022-10-09T05:24:25.425Z,2.20
2022-10-09T05:25:26.852Z,2.10
2022-10-09T05:26:28.527Z,1.93
2022-10-09T05:27:30.014Z,2.20
2022-10-09T05:28:32.514Z,2.00
2022-10-09T05:29:33.972Z,1.93
2022-10-09T05:30:35.438Z,1.70
2022-10-09T05:31:37.654Z,2.03
2022-10-09T05:32:39.135Z,1.87
2022-10-09T05:33:40.763Z,1.90
2022-10-09T05:34:42.192Z,2.00
2022-10-09T05:35:54.352Z,2.10
2022-10-09T05:36:56.037Z,2.27
2022-10-09T05:37:57.395Z,2.00
2022-10-09T05:39:00.632Z,2.10
2022-10-09T05:40:02.245Z,2.03
2022-10-09T05:41:05.949Z,2.27
2022-10-09T05:42:07.368Z,1.80
2022-10-09T05:43:08.773Z,2.03
2022-10-09T05:44:11.706Z,2.40
2022-10-09T05:45:13.253Z,2.20
2022-10-09T05:46:21.088Z,1.97
2022-10-09T05:47:22.799Z,1.93
2022-10-09T05:48:24.199Z,2.20
2022-10-09T05:49:26.068Z,2.40
2022-10-09T05:50:27.472Z,2.10
2022-10-09T05:51:34.612Z,1.93
2022-10-09T05:52:36.424Z,2.10
2022-10-09T05:53:39.101Z,2.10
2022-10-09T05:54:41.961Z,1.77
2022-10-09T05:55:43.413Z,2.00
2022-10-09T05:56:46.055Z,2.00
2022-10-09T05:57:47.417Z,1.90
2022-10-09T05:58:54.673Z,2.10
2022-10-09T05:59:56.349Z,1.90
2022-10-09T06:01:00.427Z,1.90
2022-10-09T06:02:02.338Z,2.00
2022-10-09T06:03:04.106Z,2.00
2022-10-09T06:04:09.799Z,1.73
2022-10-09T06:05:11.407Z,1.97
2022-10-09T06:06:12.753Z,1.90
2022-10-09T06:07:14.208Z,1.93
2022-10-09T06:08:15.589Z,1.90
2022-10-09T06:09:22.071Z,2.23
2022-10-09T06:10:23.520Z,2.00
2022-10-09T06:11:31.702Z,2.00
2022-10-09T06:12:33.265Z,1.87
2022-10-09T06:13:34.679Z,1.83
2022-10-09T06:14:36.706Z,2.00
2022-10-09T06:15:38.073Z,1.90
2022-10-09T06:16:42.169Z,2.10
2022-10-09T06:17:43.805Z,1.87
2022-10-09T06:18:49.368Z,1.90
2022-10-09T06:19:51.151Z,1.90
2022-10-09T06:20:54.401Z,1.80
2022-10-09T06:21:55.776Z,1.87
2022-10-09T06:22:57.367Z,2.20
2022-10-09T06:24:01.614Z,1.90
2022-10-09T06:25:03.313Z,1.90
2022-10-09T06:26:10.582Z,1.90
2022-10-09T06:27:13.693Z,1.97
2022-10-09T06:28:15.353Z,1.73
2022-10-09T06:29:16.852Z,1.93
2022-10-09T06:30:18.913Z,1.83
2022-10-09T06:31:23.053Z,1.90
2022-10-09T06:32:25.078Z,2.00
2022-10-09T06:33:29.738Z,2.10
2022-10-09T06:34:31.184Z,1.73
2022-10-09T06:35:35.175Z,2.17
2022-10-09T06:36:36.729Z,2.27
2022-10-09T06:37:38.133Z,1.83
2022-10-09T06:38:40.749Z,1.60
2022-10-09T06:39:42.171Z,1.97
2022-10-09T06:40:43.821Z,1.90
2022-10-09T06:41:45.275Z,2.13
2022-10-09T06:43:06.315Z,1.80
2022-10-09T06:44:16.038Z,1.87
2022-10-09T06:45:18.610Z,2.23
2022-10-09T06:46:21.904Z,2.17
2022-10-09T06:47:23.393Z,2.10
2022-10-09T06:48:24.786Z,2.03
2022-10-09T06:49:26.512Z,2.27
2022-10-09T06:50:27.887Z,2.13
2022-10-09T06:51:30.202Z,2.13
2022-10-09T06:52:31.607Z,2.30
2022-10-09T06:53:37.850Z,2.03
2022-10-09T06:54:39.751Z,2.30
2022-10-09T06:55:54.912Z,2.60
2022-10-09T06:56:56.807Z,2.40
2022-10-09T06:57:58.762Z,2.37
2022-10-09T06:59:01.768Z,2.30
2022-10-09T07:00:05.059Z,2.67
2022-10-09T07:01:12.031Z,2.80
2022-10-09T07:02:13.550Z,2.47
2022-10-09T07:03:15.285Z,2.97
2022-10-09T07:04:18.179Z,2.40
2022-10-09T07:05:19.762Z,3.10
2022-10-09T07:06:23.736Z,2.60
2022-10-09T07:07:25.394Z,2.60
2022-10-09T07:08:26.749Z,2.70
2022-10-09T07:09:28.171Z,2.80
2022-10-09T07:10:29.885Z,2.80
2022-10-09T07:11:41.127Z,2.90
2022-10-09T07:12:42.720Z,2.70
2022-10-09T07:13:44.317Z,2.97
2022-10-09T07:14:45.762Z,2.70
2022-10-09T07:15:47.410Z,2.80
2022-10-09T07:16:49.191Z,2.70
2022-10-09T07:17:50.620Z,2.80
2022-10-09T07:18:52.526Z,3.30
2022-10-09T07:19:54.013Z,2.90
2022-10-09T07:20:56.221Z,3.20
2022-10-09T07:21:57.691Z,2.73
2022-10-09T07:22:59.798Z,2.90
2022-10-09T07:24:02.138Z,2.70
2022-10-09T07:25:03.729Z,2.80
2022-10-09T07:26:22.910Z,2.70
2022-10-09T07:27:24.441Z,2.53
2022-10-09T07:28:28.540Z,2.60
2022-10-09T07:29:30.050Z,2.67
2022-10-09T07:30:31.671Z,2.50
2022-10-09T07:31:33.355Z,2.93
2022-10-09T07:32:34.752Z,2.57
2022-10-09T07:33:36.539Z,2.10
2022-10-09T07:34:38.050Z,2.50
2022-10-09T07:35:39.439Z,2.73
2022-10-09T07:36:41.025Z,2.53
2022-10-09T07:37:42.614Z,2.47
2022-10-09T07:38:44.508Z,2.40
2022-10-09T07:39:46.073Z,2.33
2022-10-09T07:40:47.546Z,2.50
2022-10-09T07:41:52.342Z,2.40
2022-10-09T07:42:54.542Z,2.40
2022-10-09T07:43:57.120Z,2.77
2022-10-09T07:44:58.590Z,2.40
2022-10-09T07:46:01.329Z,2.90
2022-10-09T07:47:03.093Z,2.60
2022-10-09T07:48:04.706Z,2.30
2022-10-09T07:49:06.382Z,2.10
2022-10-09T07:50:08.198Z,2.50
2022-10-09T07:51:23.067Z,2.07
2022-10-09T07:52:24.500Z,2.33
2022-10-09T07:53:25.910Z,2.20
2022-10-09T07:54:27.344Z,2.00
2022-10-09T07:55:28.764Z,2.50
2022-10-09T07:56:35.662Z,3.07
2022-10-09T07:57:37.072Z,3.20
2022-10-09T07:58:38.487Z,2.20
2022-10-09T07:59:40.365Z,2.10
2022-10-09T08:00:42.264Z,2.20
2022-10-09T08:01:43.868Z,2.13
2022-10-09T08:02:45.560Z,2.00
2022-10-09T08:03:47.117Z,2.10
2022-10-09T08:04:48.552Z,1.87
2022-10-09T08:05:56.462Z,1.80
2022-10-09T08:06:58.407Z,1.90
2022-10-09T08:08:00.028Z,1.83
2022-10-09T08:09:03.793Z,1.87
2022-10-09T08:10:05.746Z,1.70
2022-10-09T08:11:12.447Z,1.93
2022-10-09T08:12:14.438Z,1.87
2022-10-09T08:13:16.236Z,1.93
2022-10-09T08:14:19.557Z,2.17
2022-10-09T08:15:21.190Z,2.07
2022-10-09T08:16:24.283Z,2.00
2022-10-09T08:17:25.765Z,1.93
2022-10-09T08:18:27.118Z,2.07
2022-10-09T08:19:28.868Z,1.87
2022-10-09T08:20:30.577Z,2.20
2022-10-09T08:21:32.975Z,1.80
2022-10-09T08:22:34.647Z,1.93
2022-10-09T08:23:36.320Z,1.87
2022-10-09T08:24:38.427Z,1.80
2022-10-09T08:25:39.875Z,2.30
2022-10-09T08:26:42.842Z,1.90
2022-10-09T08:27:44.251Z,1.73
2022-10-09T08:28:51.384Z,1.70
2022-10-09T08:29:53.272Z,1.80
2022-10-09T08:30:54.781Z,1.60
2022-10-09T08:31:56.576Z,1.60
2022-10-09T08:32:57.965Z,1.70
2022-10-09T08:34:02.848Z,1.60
2022-10-09T08:35:04.598Z,1.90
2022-10-09T08:36:07.855Z,1.50
2022-10-09T08:37:09.526Z,1.67
2022-10-09T08:38:25.357Z,1.60
2022-10-09T08:39:32.446Z,1.70
2022-10-09T08:40:42.413Z,1.60
2022-10-09T08:41:43.846Z,1.70
2022-10-09T08:42:52.869Z,1.77
2022-10-09T08:44:03.234Z,1.40
2022-10-09T08:45:05.438Z,1.70
2022-10-09T08:46:20.919Z,1.50
2022-10-09T08:47:30.279Z,1.60
2022-10-09T08:48:39.282Z,1.90
2022-10-09T08:49:47.258Z,1.60
2022-10-09T08:50:53.259Z,1.70
2022-10-09T08:51:56.356Z,1.80
2022-10-09T08:53:31.837Z,1.70
2022-10-09T08:54:39.578Z,1.70
2022-10-09T08:55:56.408Z,1.90
2022-10-09T08:57:02.764Z,1.60
2022-10-09T08:58:06.406Z,1.60
2022-10-09T08:59:11.777Z,1.50
2022-10-09T09:00:18.842Z,1.40
2022-10-09T09:01:26.450Z,1.47
2022-10-09T09:02:34.123Z,1.43
2022-10-09T09:04:01.401Z,1.50
2022-10-09T09:05:14.992Z,1.60
2022-10-09T09:06:32.125Z,1.30
2022-10-09T09:07:49.327Z,1.90
2022-10-09T09:09:16.596Z,1.40
2022-10-09T09:10:34.553Z,1.63
2022-10-09T09:11:38.836Z,1.60
2022-10-09T09:12:56.989Z,1.47
2022-10-09T09:14:39.449Z,1.60
2022-10-09T09:16:22.582Z,1.60
2022-10-09T09:17:54.403Z,1.43
2022-10-09T09:19:08.161Z,1.40
2022-10-09T09:20:16.402Z,1.53
2022-10-09T09:21:35.886Z,1.40
2022-10-09T09:22:41.306Z,1.60
2022-10-09T09:23:46.468Z,1.50
2022-10-09T09:24:56.310Z,1.60
2022-10-09T09:25:59.531Z,1.60
2022-10-09T09:27:09.741Z,1.97
2022-10-09T09:28:23.966Z,1.30
2022-10-09T09:29:26.743Z,1.63
2022-10-09T09:30:34.487Z,1.40
2022-10-09T09:31:37.224Z,1.50
2022-10-09T09:32:56.735Z,1.50
2022-10-09T09:34:06.950Z,1.30
2022-10-09T09:35:19.523Z,1.50
2022-10-09T09:36:26.927Z,1.30
2022-10-09T09:37:28.318Z,1.33
2022-10-09T09:38:30.111Z,1.40
2022-10-09T09:40:56.973Z,1.20
2022-10-09T09:42:07.015Z,1.50
2022-10-09T09:43:21.039Z,1.70
2022-10-09T09:44:22.491Z,1.70
2022-10-09T09:45:26.378Z,1.30
2022-10-09T09:46:30.385Z,1.40
2022-10-09T09:47:40.656Z,1.50
2022-10-09T09:48:48.442Z,1.50
2022-10-09T09:49:58.930Z,1.60
2022-10-09T09:51:26.409Z,1.40
2022-10-09T09:52:26.443Z,1.53
2022-10-09T09:53:33.485Z,1.60
2022-10-09T09:54:34.945Z,1.67
2022-10-09T09:55:37.151Z,1.43
2022-10-09T09:57:10.261Z,1.83
2022-10-09T09:58:06.741Z,1.40
2022-10-09T09:59:25.211Z,1.33
2022-10-09T10:00:26.841Z,1.40
2022-10-09T10:01:31.174Z,1.47
2022-10-09T10:02:32.599Z,1.43
2022-10-09T10:03:35.765Z,1.50
2022-10-09T10:04:42.487Z,1.53
2022-10-09T10:05:45.743Z,1.60
2022-10-09T10:06:47.405Z,1.50
2022-10-09T10:07:51.379Z,1.60
2022-10-09T10:09:12.480Z,1.70
2022-10-09T10:10:25.504Z,1.57
2022-10-09T10:11:28.141Z,1.80
2022-10-09T10:12:29.742Z,1.70
2022-10-09T10:13:39.629Z,1.87
2022-10-09T10:14:50.689Z,1.57
2022-10-09T10:15:55.270Z,1.63
2022-10-09T10:16:59.158Z,1.70
2022-10-09T10:18:17.043Z,1.80
2022-10-09T10:19:27.743Z,1.77
2022-10-09T10:20:32.501Z,1.53
2022-10-09T10:21:46.993Z,1.50
2022-10-09T10:22:53.334Z,1.83
2022-10-09T10:24:16.452Z,1.60
2022-10-09T10:25:20.257Z,1.30
2022-10-09T10:26:36.021Z,1.30
2022-10-09T10:27:42.208Z,1.40
2022-10-09T10:28:53.506Z,1.67
2022-10-09T10:30:15.562Z,1.47
2022-10-09T10:31:31.369Z,1.80
2022-10-09T10:32:44.603Z,1.80
2022-10-09T10:33:54.667Z,1.90
2022-10-09T10:35:01.510Z,1.70
2022-10-09T10:36:03.031Z,1.80
2022-10-09T10:37:13.790Z,1.60
2022-10-09T10:38:49.027Z,1.77
2022-10-09T10:39:56.878Z,1.70
2022-10-09T10:41:23.980Z,1.57
2022-10-09T10:42:49.187Z,1.63
2022-10-09T10:44:18.665Z,1.80
2022-10-09T10:45:43.146Z,1.67
2022-10-09T10:46:49.634Z,2.00
2022-10-09T10:47:55.133Z,1.80
2022-10-09T10:49:00.598Z,1.80
2022-10-09T10:50:02.407Z,1.97
2022-10-09T10:51:31.914Z,1.70
2022-10-09T10:52:56.550Z,1.60
2022-10-09T10:54:08.366Z,1.80
2022-10-09T10:55:42.053Z,1.70
2022-10-09T10:56:55.991Z,1.80
2022-10-09T10:59:54.627Z,1.80
2022-10-09T11:01:20.769Z,1.80
2022-10-09T11:02:50.131Z,1.80
2022-10-09T11:04:26.556Z,1.70
2022-10-09T11:05:34.546Z,1.80
2022-10-09T11:07:06.494Z,1.60
2022-10-09T11:08:25.953Z,1.80
2022-10-09T11:09:49.835Z,1.67
2022-10-09T11:11:17.270Z,1.63
2022-10-09T11:12:46.830Z,1.77
2022-10-09T11:14:17.865Z,1.70
2022-10-09T11:15:24.181Z,1.83
2022-10-09T11:16:46.022Z,1.70
2022-10-09T11:18:12.214Z,1.60
2022-10-09T11:20:10.848Z,1.90
2022-10-09T11:21:43.573Z,1.63
2022-10-09T11:23:28.693Z,1.90
2022-10-09T11:25:04.582Z,1.93
2022-10-09T11:26:18.627Z,1.60
2022-10-09T11:27:38.161Z,1.60
2022-10-09T11:28:49.863Z,1.97
2022-10-09T11:30:02.413Z,1.80
2022-10-09T11:31:28.751Z,1.60
2022-10-09T11:33:50.141Z,1.60
2022-10-09T11:35:02.242Z,1.80
2022-10-09T11:36:27.433Z,1.60
2022-10-09T11:37:34.940Z,1.50
2022-10-09T11:38:58.436Z,1.67
2022-10-09T11:39:59.952Z,1.90
2022-10-09T11:41:06.445Z,1.73
2022-10-09T11:42:12.041Z,2.10
2022-10-09T11:43:26.038Z,1.90
2022-10-09T11:45:02.660Z,1.80
2022-10-09T11:46:27.981Z,1.50
2022-10-09T11:48:03.579Z,1.80
2022-10-09T11:49:23.221Z,2.00
2022-10-09T11:50:50.479Z,1.70
2022-10-09T11:52:11.220Z,1.70
2022-10-09T11:53:18.592Z,1.77
2022-10-09T11:54:22.710Z,1.90
2022-10-09T11:55:30.341Z,1.50
2022-10-09T11:56:32.389Z,1.73
2022-10-09T11:57:35.376Z,2.10
2022-10-09T11:58:36.848Z,1.87
2022-10-09T11:59:42.186Z,1.70
2022-10-09T12:00:44.459Z,1.73
2022-10-09T12:01:47.614Z,2.00
2022-10-09T12:02:58.116Z,1.63
2022-10-09T12:04:20.842Z,1.80
2022-10-09T12:05:44.726Z,1.77
2022-10-09T12:06:55.909Z,1.80
2022-10-09T12:08:08.654Z,1.90
2022-10-09T12:09:10.231Z,1.90
2022-10-09T12:10:32.536Z,2.20
2022-10-09T12:11:34.662Z,1.90
2022-10-09T12:12:39.020Z,1.83
2022-10-09T12:13:47.336Z,1.70
2022-10-09T12:14:50.757Z,1.87
2022-10-09T12:15:52.281Z,1.80
2022-10-09T12:16:54.979Z,1.80
2022-10-09T12:17:56.567Z,1.90
2022-10-09T12:19:01.415Z,1.77
2022-10-09T12:20:05.883Z,1.93
2022-10-09T12:21:18.401Z,2.07
2022-10-09T12:22:36.569Z,1.70
2022-10-09T12:23:39.895Z,1.90
2022-10-09T12:24:48.184Z,1.80
2022-10-09T12:25:50.619Z,1.70
2022-10-09T12:26:56.319Z,2.10
2022-10-09T12:27:59.256Z,2.00
2022-10-09T12:29:04.758Z,2.03
2022-10-09T12:30:15.358Z,2.00
2022-10-09T12:31:39.901Z,1.90
2022-10-09T12:32:50.704Z,1.83
2022-10-09T12:33:59.007Z,1.87
2022-10-09T12:35:04.303Z,1.70
2022-10-09T12:36:10.381Z,1.80
2022-10-09T12:37:16.777Z,1.80
2022-10-09T12:38:23.034Z,1.80
2022-10-09T12:39:24.620Z,1.80
2022-10-09T12:40:32.056Z,2.00
2022-10-09T12:41:35.292Z,1.77
2022-10-09T12:42:37.202Z,1.80
2022-10-09T12:43:44.737Z,2.00
2022-10-09T12:44:48.076Z,1.80
2022-10-09T12:45:51.863Z,1.80
2022-10-09T12:46:53.927Z,2.07
2022-10-09T12:47:57.118Z,1.90
2022-10-09T12:48:59.854Z,1.93
2022-10-09T12:50:26.918Z,1.87
2022-10-09T12:51:31.672Z,1.80
2022-10-09T12:52:33.176Z,2.03
2022-10-09T12:53:45.610Z,1.80
2022-10-09T12:54:46.984Z,1.97
2022-10-09T12:55:55.947Z,2.07
2022-10-09T12:56:59.094Z,2.00
2022-10-09T12:58:18.331Z,2.10
2022-10-09T12:59:22.146Z,1.97
2022-10-09T13:00:23.786Z,2.07
2022-10-09T13:01:26.012Z,1.67
2022-10-09T13:02:27.855Z,1.80
2022-10-09T13:04:00.044Z,1.63
2022-10-09T13:05:02.269Z,1.90
2022-10-09T13:06:22.175Z,1.80
2022-10-09T13:07:27.199Z,1.70
2022-10-09T13:08:32.409Z,1.70
2022-10-09T13:09:37.278Z,1.90
2022-10-09T13:10:38.861Z,1.80
2022-10-09T13:11:45.261Z,1.80
2022-10-09T13:12:52.638Z,1.70
2022-10-09T13:13:54.952Z,1.80
2022-10-09T13:15:07.835Z,1.50
2022-10-09T13:16:10.852Z,1.90
2022-10-09T13:18:33.257Z,1.63
2022-10-09T13:19:35.804Z,2.00
2022-10-09T13:20:37.542Z,1.93
2022-10-09T13:21:39.007Z,1.73
2022-10-09T13:22:40.636Z,1.70
2022-10-09T13:23:42.322Z,2.07
2022-10-09T13:24:43.964Z,2.00
2022-10-09T13:25:45.613Z,1.90
2022-10-09T13:26:47.073Z,2.20
2022-10-09T13:27:48.708Z,2.27
2022-10-09T13:28:50.622Z,1.70
2022-10-09T13:29:52.383Z,1.70
2022-10-09T13:30:53.957Z,2.03
2022-10-09T13:31:55.572Z,1.83
2022-10-09T13:32:57.453Z,2.00
2022-10-09T13:33:58.954Z,1.80
2022-10-09T13:35:00.495Z,2.00
2022-10-09T13:36:02.021Z,1.87
2022-10-09T13:37:03.532Z,1.70
2022-10-09T13:38:05.011Z,2.17
2022-10-09T13:39:06.873Z,2.00
2022-10-09T13:40:15.340Z,1.93
2022-10-09T13:41:23.044Z,1.97
2022-10-09T13:42:27.689Z,1.97
2022-10-09T13:43:31.437Z,1.90
2022-10-09T13:44:33.366Z,2.00
2022-10-09T13:45:35.148Z,2.10
2022-10-09T13:46:36.523Z,2.30
2022-10-09T13:47:38.669Z,1.90
2022-10-09T13:48:40.488Z,1.70
2022-10-09T13:49:42.173Z,2.00
2022-10-09T13:50:44.148Z,2.00
2022-10-09T13:51:45.930Z,1.70
2022-10-09T13:52:47.738Z,1.90
2022-10-09T13:53:50.081Z,1.80
2022-10-09T13:54:52.194Z,1.87
2022-10-09T13:55:58.482Z,2.00
2022-10-09T13:57:02.678Z,1.90
2022-10-09T13:58:04.525Z,1.80
2022-10-09T13:59:06.693Z,1.93
2022-10-09T14:00:08.807Z,2.00
2022-10-09T14:01:15.949Z,2.17
2022-10-09T14:02:17.608Z,2.07
2022-10-09T14:03:19.022Z,1.97
2022-10-09T14:04:20.756Z,1.97
2022-10-09T14:05:22.354Z,1.93
2022-10-09T14:06:23.873Z,2.00
2022-10-09T14:07:25.530Z,1.83
2022-10-09T14:08:27.157Z,1.70
2022-10-09T14:09:28.852Z,1.70
2022-10-09T14:10:30.446Z,1.90
2022-10-09T14:11:33.045Z,1.93
2022-10-09T14:12:34.614Z,1.97
2022-10-09T14:13:36.134Z,2.10
2022-10-09T14:14:37.721Z,1.70
2022-10-09T14:15:40.331Z,1.80
2022-10-09T14:16:41.892Z,2.07
2022-10-09T14:17:43.454Z,1.80
2022-10-09T14:18:45.012Z,1.80
2022-10-09T14:19:46.529Z,2.00
2022-10-09T14:20:49.072Z,1.80
2022-10-09T14:21:50.913Z,1.67
2022-10-09T14:22:52.490Z,2.03
2022-10-09T14:23:55.217Z,2.20
2022-10-09T14:24:57.164Z,1.90
2022-10-09T14:26:04.062Z,2.17
2022-10-09T14:27:05.973Z,1.87
2022-10-09T14:28:07.777Z,1.70
2022-10-09T14:29:09.965Z,1.90
2022-10-09T14:30:12.086Z,2.07
2022-10-09T14:31:14.023Z,1.70
2022-10-09T14:32:15.477Z,1.90
2022-10-09T14:33:17.014Z,1.73
2022-10-09T14:34:18.551Z,1.93
2022-10-09T14:35:21.471Z,1.70
2022-10-09T14:36:23.487Z,1.70
2022-10-09T14:37:40.363Z,1.87
2022-10-09T14:38:43.407Z,1.90
2022-10-09T14:39:45.008Z,2.07
2022-10-09T14:40:46.698Z,2.00
2022-10-09T14:41:48.261Z,1.80
2022-10-09T14:42:50.081Z,1.93